sensor_id;sensor_type;location;lat;lon;timestamp;P1;durP1;ratioP1;P2;durP2;ratioP2
8628;SDS011;4352;49.404;11.092;2022-12-17T00:01:54;52.67;;;23.60;;
8628;SDS011;4352;49.404;11.092;2022-12-17T00:04:38;50.57;;;23.23;;
8628;SDS011;4352;49.404;11.092;2022-12-17T00:07:23;51.73;;;23.63;;
8628;SDS011;4352;49.404;11.092;2022-12-17T00:10:07;50.67;;;23.20;;
8628;SDS011;4352;49.404;11.092;2022-12-17T00:12:53;49.37;;;24.63;;
8628;SDS011;4352;49.404;11.092;2022-12-17T00:15:49;46.80;;;24.27;;
8628;SDS011;4352;49.404;11.092;2022-12-17T00:18:33;48.83;;;25.13;;
8628;SDS011;4352;49.404;11.092;2022-12-17T00:21:18;49.23;;;23.10;;
8628;SDS011;4352;49.404;11.092;2022-12-17T00:24:02;46.37;;;22.20;;
8628;SDS011;4352;49.404;11.092;2022-12-17T00:26:47;50.80;;;22.87;;
8628;SDS011;4352;49.404;11.092;2022-12-17T00:29:33;49.47;;;23.47;;
8628;SDS011;4352;49.404;11.092;2022-12-17T00:32:18;51.33;;;23.53;;
8628;SDS011;4352;49.404;11.092;2022-12-17T00:35:03;44.40;;;23.30;;
8628;SDS011;4352;49.404;11.092;2022-12-17T00:37:48;47.83;;;23.73;;
8628;SDS011;4352;49.404;11.092;2022-12-17T00:40:32;51.70;;;23.73;;
8628;SDS011;4352;49.404;11.092;2022-12-17T00:43:17;51.93;;;24.23;;
8628;SDS011;4352;49.404;11.092;2022-12-17T00:46:03;50.13;;;23.90;;
8628;SDS011;4352;49.404;11.092;2022-12-17T00:48:48;44.73;;;23.60;;
8628;SDS011;4352;49.404;11.092;2022-12-17T00:51:32;47.33;;;22.57;;
8628;SDS011;4352;49.404;11.092;2022-12-17T00:54:17;49.00;;;23.03;;
8628;SDS011;4352;49.404;11.092;2022-12-17T00:57:01;50.83;;;24.70;;
8628;SDS011;4352;49.404;11.092;2022-12-17T00:59:46;51.10;;;25.20;;
8628;SDS011;4352;49.404;11.092;2022-12-17T01:02:32;46.90;;;23.87;;
8628;SDS011;4352;49.404;11.092;2022-12-17T01:05:25;52.00;;;25.43;;
8628;SDS011;4352;49.404;11.092;2022-12-17T01:08:11;52.30;;;23.83;;
8628;SDS011;4352;49.404;11.092;2022-12-17T01:10:59;46.60;;;23.77;;
8628;SDS011;4352;49.404;11.092;2022-12-17T01:13:44;48.33;;;23.30;;
8628;SDS011;4352;49.404;11.092;2022-12-17T01:16:29;51.87;;;23.77;;
8628;SDS011;4352;49.404;11.092;2022-12-17T01:19:14;51.40;;;24.60;;
8628;SDS011;4352;49.404;11.092;2022-12-17T01:21:59;45.77;;;21.97;;
8628;SDS011;4352;49.404;11.092;2022-12-17T01:24:44;46.83;;;22.80;;
8628;SDS011;4352;49.404;11.092;2022-12-17T01:27:29;45.90;;;21.40;;
8628;SDS011;4352;49.404;11.092;2022-12-17T01:30:13;47.77;;;22.33;;
8628;SDS011;4352;49.404;11.092;2022-12-17T01:33:06;52.30;;;23.07;;
8628;SDS011;4352;49.404;11.092;2022-12-17T01:35:54;48.80;;;24.07;;
8628;SDS011;4352;49.404;11.092;2022-12-17T01:38:40;50.03;;;22.13;;
8628;SDS011;4352;49.404;11.092;2022-12-17T01:41:24;46.37;;;22.47;;
8628;SDS011;4352;49.404;11.092;2022-12-17T01:47:13;44.47;;;21.60;;
8628;SDS011;4352;49.404;11.092;2022-12-17T01:50:12;47.63;;;21.07;;
8628;SDS011;4352;49.404;11.092;2022-12-17T01:52:59;42.20;;;21.27;;
8628;SDS011;4352;49.404;11.092;2022-12-17T01:55:44;48.33;;;21.40;;
8628;SDS011;4352;49.404;11.092;2022-12-17T01:58:29;46.50;;;22.40;;
8628;SDS011;4352;49.404;11.092;2022-12-17T02:01:13;43.43;;;20.50;;
8628;SDS011;4352;49.404;11.092;2022-12-17T02:03:58;39.83;;;19.47;;
8628;SDS011;4352;49.404;11.092;2022-12-17T02:06:45;40.93;;;20.43;;
8628;SDS011;4352;49.404;11.092;2022-12-17T02:09:34;42.37;;;19.40;;
8628;SDS011;4352;49.404;11.092;2022-12-17T02:12:21;44.00;;;19.80;;
8628;SDS011;4352;49.404;11.092;2022-12-17T02:15:09;43.80;;;18.47;;
8628;SDS011;4352;49.404;11.092;2022-12-17T02:18:07;41.20;;;19.53;;
8628;SDS011;4352;49.404;11.092;2022-12-17T02:20:54;43.37;;;19.40;;
8628;SDS011;4352;49.404;11.092;2022-12-17T02:23:41;42.93;;;19.57;;
8628;SDS011;4352;49.404;11.092;2022-12-17T02:26:35;39.20;;;19.50;;
8628;SDS011;4352;49.404;11.092;2022-12-17T02:29:20;41.00;;;19.13;;
8628;SDS011;4352;49.404;11.092;2022-12-17T02:32:06;44.90;;;18.27;;
8628;SDS011;4352;49.404;11.092;2022-12-17T02:34:51;38.70;;;17.60;;
8628;SDS011;4352;49.404;11.092;2022-12-17T02:37:50;39.37;;;18.43;;
8628;SDS011;4352;49.404;11.092;2022-12-17T02:40:35;42.80;;;19.57;;
8628;SDS011;4352;49.404;11.092;2022-12-17T02:43:21;40.03;;;18.90;;
8628;SDS011;4352;49.404;11.092;2022-12-17T02:46:07;40.97;;;19.03;;
8628;SDS011;4352;49.404;11.092;2022-12-17T02:48:52;40.27;;;19.17;;
8628;SDS011;4352;49.404;11.092;2022-12-17T02:51:37;40.57;;;19.53;;
8628;SDS011;4352;49.404;11.092;2022-12-17T02:54:22;40.17;;;19.30;;
8628;SDS011;4352;49.404;11.092;2022-12-17T02:57:12;38.57;;;18.17;;
8628;SDS011;4352;49.404;11.092;2022-12-17T02:59:58;40.80;;;18.87;;
8628;SDS011;4352;49.404;11.092;2022-12-17T03:02:43;42.20;;;19.00;;
8628;SDS011;4352;49.404;11.092;2022-12-17T03:05:27;41.73;;;19.57;;
8628;SDS011;4352;49.404;11.092;2022-12-17T03:08:12;40.13;;;18.57;;
8628;SDS011;4352;49.404;11.092;2022-12-17T03:10:57;42.33;;;19.43;;
8628;SDS011;4352;49.404;11.092;2022-12-17T03:13:42;44.50;;;20.50;;
8628;SDS011;4352;49.404;11.092;2022-12-17T03:16:28;40.37;;;19.47;;
8628;SDS011;4352;49.404;11.092;2022-12-17T03:19:12;38.23;;;18.90;;
8628;SDS011;4352;49.404;11.092;2022-12-17T03:21:57;43.93;;;19.70;;
8628;SDS011;4352;49.404;11.092;2022-12-17T03:24:38;42.20;;;19.83;;
8628;SDS011;4352;49.404;11.092;2022-12-17T03:27:24;40.93;;;19.03;;
8628;SDS011;4352;49.404;11.092;2022-12-17T03:30:09;38.43;;;19.57;;
8628;SDS011;4352;49.404;11.092;2022-12-17T03:32:55;37.67;;;18.73;;
8628;SDS011;4352;49.404;11.092;2022-12-17T03:35:40;40.17;;;19.50;;
8628;SDS011;4352;49.404;11.092;2022-12-17T03:38:24;42.57;;;20.00;;
8628;SDS011;4352;49.404;11.092;2022-12-17T03:41:09;48.30;;;19.87;;
8628;SDS011;4352;49.404;11.092;2022-12-17T03:43:54;40.97;;;20.10;;
8628;SDS011;4352;49.404;11.092;2022-12-17T03:46:38;47.07;;;22.00;;
8628;SDS011;4352;49.404;11.092;2022-12-17T03:49:38;45.67;;;20.00;;
8628;SDS011;4352;49.404;11.092;2022-12-17T03:52:23;42.87;;;20.57;;
8628;SDS011;4352;49.404;11.092;2022-12-17T03:55:16;46.07;;;21.90;;
8628;SDS011;4352;49.404;11.092;2022-12-17T03:58:00;48.57;;;21.33;;
8628;SDS011;4352;49.404;11.092;2022-12-17T04:00:50;43.60;;;20.77;;
8628;SDS011;4352;49.404;11.092;2022-12-17T04:03:35;46.63;;;19.40;;
8628;SDS011;4352;49.404;11.092;2022-12-17T04:06:36;44.03;;;20.53;;
8628;SDS011;4352;49.404;11.092;2022-12-17T04:09:22;46.53;;;21.03;;
8628;SDS011;4352;49.404;11.092;2022-12-17T04:12:12;40.60;;;20.27;;
8628;SDS011;4352;49.404;11.092;2022-12-17T04:14:57;41.23;;;20.07;;
8628;SDS011;4352;49.404;11.092;2022-12-17T04:17:41;41.47;;;19.30;;
8628;SDS011;4352;49.404;11.092;2022-12-17T04:20:26;43.23;;;20.53;;
8628;SDS011;4352;49.404;11.092;2022-12-17T04:23:12;46.30;;;20.40;;
8628;SDS011;4352;49.404;11.092;2022-12-17T04:25:56;43.37;;;20.33;;
8628;SDS011;4352;49.404;11.092;2022-12-17T04:28:37;45.33;;;19.97;;
8628;SDS011;4352;49.404;11.092;2022-12-17T04:31:22;44.83;;;19.80;;
8628;SDS011;4352;49.404;11.092;2022-12-17T04:34:07;43.07;;;19.77;;
8628;SDS011;4352;49.404;11.092;2022-12-17T04:36:52;46.30;;;20.20;;
8628;SDS011;4352;49.404;11.092;2022-12-17T04:39:38;47.93;;;20.97;;
8628;SDS011;4352;49.404;11.092;2022-12-17T04:42:23;43.40;;;20.53;;
8628;SDS011;4352;49.404;11.092;2022-12-17T04:45:07;42.43;;;20.83;;
8628;SDS011;4352;49.404;11.092;2022-12-17T04:47:58;41.70;;;19.97;;
8628;SDS011;4352;49.404;11.092;2022-12-17T04:50:43;46.43;;;22.07;;
8628;SDS011;4352;49.404;11.092;2022-12-17T04:53:27;45.17;;;20.87;;
8628;SDS011;4352;49.404;11.092;2022-12-17T04:56:13;44.57;;;20.90;;
8628;SDS011;4352;49.404;11.092;2022-12-17T04:58:58;47.67;;;21.67;;
8628;SDS011;4352;49.404;11.092;2022-12-17T05:01:43;49.80;;;21.37;;
8628;SDS011;4352;49.404;11.092;2022-12-17T05:04:28;44.40;;;21.63;;
8628;SDS011;4352;49.404;11.092;2022-12-17T05:07:12;48.50;;;21.30;;
8628;SDS011;4352;49.404;11.092;2022-12-17T05:09:57;48.77;;;21.83;;
8628;SDS011;4352;49.404;11.092;2022-12-17T05:12:43;48.37;;;20.87;;
8628;SDS011;4352;49.404;11.092;2022-12-17T05:15:27;61.83;;;23.40;;
8628;SDS011;4352;49.404;11.092;2022-12-17T05:18:12;60.27;;;24.67;;
8628;SDS011;4352;49.404;11.092;2022-12-17T05:20:57;60.60;;;24.60;;
8628;SDS011;4352;49.404;11.092;2022-12-17T05:23:41;63.23;;;25.40;;
8628;SDS011;4352;49.404;11.092;2022-12-17T05:26:26;53.73;;;22.60;;
8628;SDS011;4352;49.404;11.092;2022-12-17T05:29:13;53.57;;;23.30;;
8628;SDS011;4352;49.404;11.092;2022-12-17T05:31:57;46.77;;;21.43;;
8628;SDS011;4352;49.404;11.092;2022-12-17T05:34:42;43.00;;;20.03;;
8628;SDS011;4352;49.404;11.092;2022-12-17T05:37:27;50.30;;;22.17;;
8628;SDS011;4352;49.404;11.092;2022-12-17T05:40:11;48.17;;;21.20;;
8628;SDS011;4352;49.404;11.092;2022-12-17T05:42:56;47.37;;;21.63;;
8628;SDS011;4352;49.404;11.092;2022-12-17T05:45:42;42.77;;;20.20;;
8628;SDS011;4352;49.404;11.092;2022-12-17T05:48:27;48.30;;;21.33;;
8628;SDS011;4352;49.404;11.092;2022-12-17T05:51:12;44.93;;;21.27;;
8628;SDS011;4352;49.404;11.092;2022-12-17T05:53:57;48.13;;;21.63;;
8628;SDS011;4352;49.404;11.092;2022-12-17T05:56:41;45.93;;;20.83;;
8628;SDS011;4352;49.404;11.092;2022-12-17T05:59:26;46.53;;;21.50;;
8628;SDS011;4352;49.404;11.092;2022-12-17T06:02:12;49.93;;;23.37;;
8628;SDS011;4352;49.404;11.092;2022-12-17T06:04:57;44.20;;;21.37;;
8628;SDS011;4352;49.404;11.092;2022-12-17T06:07:41;50.57;;;23.43;;
8628;SDS011;4352;49.404;11.092;2022-12-17T06:10:26;50.83;;;23.73;;
8628;SDS011;4352;49.404;11.092;2022-12-17T06:13:10;47.53;;;23.43;;
8628;SDS011;4352;49.404;11.092;2022-12-17T06:15:55;48.80;;;22.30;;
8628;SDS011;4352;49.404;11.092;2022-12-17T06:18:41;45.93;;;22.30;;
8628;SDS011;4352;49.404;11.092;2022-12-17T06:21:26;47.37;;;22.30;;
8628;SDS011;4352;49.404;11.092;2022-12-17T06:24:10;51.53;;;22.50;;
8628;SDS011;4352;49.404;11.092;2022-12-17T06:26:54;49.63;;;23.27;;
8628;SDS011;4352;49.404;11.092;2022-12-17T06:29:38;54.37;;;22.67;;
8628;SDS011;4352;49.404;11.092;2022-12-17T06:32:23;51.97;;;23.53;;
8628;SDS011;4352;49.404;11.092;2022-12-17T06:35:08;51.57;;;23.03;;
8628;SDS011;4352;49.404;11.092;2022-12-17T06:37:56;50.80;;;22.47;;
8628;SDS011;4352;49.404;11.092;2022-12-17T06:40:41;43.63;;;20.53;;
8628;SDS011;4352;49.404;11.092;2022-12-17T06:43:25;51.60;;;23.63;;
8628;SDS011;4352;49.404;11.092;2022-12-17T06:46:10;44.80;;;22.13;;
8628;SDS011;4352;49.404;11.092;2022-12-17T06:48:51;45.03;;;21.13;;
8628;SDS011;4352;49.404;11.092;2022-12-17T06:51:37;48.50;;;22.40;;
8628;SDS011;4352;49.404;11.092;2022-12-17T06:54:22;44.63;;;21.60;;
8628;SDS011;4352;49.404;11.092;2022-12-17T06:57:07;47.43;;;21.77;;
8628;SDS011;4352;49.404;11.092;2022-12-17T06:59:51;48.77;;;21.27;;
8628;SDS011;4352;49.404;11.092;2022-12-17T07:02:36;55.70;;;23.20;;
8628;SDS011;4352;49.404;11.092;2022-12-17T07:05:21;54.33;;;23.70;;
8628;SDS011;4352;49.404;11.092;2022-12-17T07:08:18;47.47;;;22.37;;
8628;SDS011;4352;49.404;11.092;2022-12-17T07:11:02;50.67;;;22.10;;
8628;SDS011;4352;49.404;11.092;2022-12-17T07:13:47;54.73;;;21.97;;
8628;SDS011;4352;49.404;11.092;2022-12-17T07:16:32;46.70;;;21.63;;
8628;SDS011;4352;49.404;11.092;2022-12-17T07:19:16;50.17;;;22.87;;
8628;SDS011;4352;49.404;11.092;2022-12-17T07:22:01;48.23;;;22.77;;
8628;SDS011;4352;49.404;11.092;2022-12-17T07:24:47;55.60;;;24.70;;
8628;SDS011;4352;49.404;11.092;2022-12-17T07:27:31;49.47;;;24.40;;
8628;SDS011;4352;49.404;11.092;2022-12-17T07:30:16;48.17;;;23.43;;
8628;SDS011;4352;49.404;11.092;2022-12-17T07:33:01;51.50;;;24.70;;
8628;SDS011;4352;49.404;11.092;2022-12-17T07:35:46;54.27;;;26.13;;
8628;SDS011;4352;49.404;11.092;2022-12-17T07:38:31;54.47;;;23.60;;
8628;SDS011;4352;49.404;11.092;2022-12-17T07:41:17;55.03;;;23.83;;
8628;SDS011;4352;49.404;11.092;2022-12-17T07:44:02;52.87;;;23.90;;
8628;SDS011;4352;49.404;11.092;2022-12-17T07:46:47;55.93;;;25.13;;
8628;SDS011;4352;49.404;11.092;2022-12-17T07:49:31;48.07;;;23.57;;
8628;SDS011;4352;49.404;11.092;2022-12-17T07:52:16;52.43;;;22.63;;
8628;SDS011;4352;49.404;11.092;2022-12-17T07:55:01;49.90;;;22.40;;
8628;SDS011;4352;49.404;11.092;2022-12-17T07:57:47;55.33;;;22.93;;
8628;SDS011;4352;49.404;11.092;2022-12-17T08:00:31;52.63;;;25.13;;
8628;SDS011;4352;49.404;11.092;2022-12-17T08:03:18;48.10;;;22.63;;
8628;SDS011;4352;49.404;11.092;2022-12-17T08:06:03;49.23;;;23.53;;
8628;SDS011;4352;49.404;11.092;2022-12-17T08:08:48;54.20;;;23.30;;
8628;SDS011;4352;49.404;11.092;2022-12-17T08:11:33;53.17;;;25.97;;
8628;SDS011;4352;49.404;11.092;2022-12-17T08:14:19;57.17;;;24.13;;
8628;SDS011;4352;49.404;11.092;2022-12-17T08:17:03;60.57;;;27.13;;
8628;SDS011;4352;49.404;11.092;2022-12-17T08:19:48;56.30;;;25.43;;
8628;SDS011;4352;49.404;11.092;2022-12-17T08:22:33;65.83;;;28.00;;
8628;SDS011;4352;49.404;11.092;2022-12-17T08:25:17;60.00;;;28.77;;
8628;SDS011;4352;49.404;11.092;2022-12-17T08:28:02;60.37;;;28.50;;
8628;SDS011;4352;49.404;11.092;2022-12-17T08:30:48;58.10;;;27.00;;
8628;SDS011;4352;49.404;11.092;2022-12-17T08:33:33;54.77;;;27.17;;
8628;SDS011;4352;49.404;11.092;2022-12-17T08:36:18;58.50;;;25.07;;
8628;SDS011;4352;49.404;11.092;2022-12-17T08:39:02;54.37;;;25.90;;
8628;SDS011;4352;49.404;11.092;2022-12-17T08:41:47;50.03;;;23.70;;
8628;SDS011;4352;49.404;11.092;2022-12-17T08:44:31;47.90;;;23.93;;
8628;SDS011;4352;49.404;11.092;2022-12-17T08:47:17;45.70;;;20.97;;
8628;SDS011;4352;49.404;11.092;2022-12-17T08:50:02;47.60;;;20.77;;
8628;SDS011;4352;49.404;11.092;2022-12-17T08:52:47;46.80;;;22.70;;
8628;SDS011;4352;49.404;11.092;2022-12-17T08:55:31;54.50;;;26.70;;
8628;SDS011;4352;49.404;11.092;2022-12-17T08:58:21;45.00;;;23.97;;
8628;SDS011;4352;49.404;11.092;2022-12-17T09:01:06;45.03;;;23.63;;
8628;SDS011;4352;49.404;11.092;2022-12-17T09:03:52;40.50;;;21.77;;
8628;SDS011;4352;49.404;11.092;2022-12-17T09:06:36;34.50;;;20.70;;
8628;SDS011;4352;49.404;11.092;2022-12-17T09:09:21;35.20;;;20.67;;
8628;SDS011;4352;49.404;11.092;2022-12-17T09:12:06;49.53;;;22.07;;
8628;SDS011;4352;49.404;11.092;2022-12-17T09:14:50;32.77;;;20.47;;
8628;SDS011;4352;49.404;11.092;2022-12-17T09:17:35;33.50;;;19.97;;
8628;SDS011;4352;49.404;11.092;2022-12-17T09:20:21;31.57;;;19.60;;
8628;SDS011;4352;49.404;11.092;2022-12-17T09:23:06;33.70;;;22.30;;
8628;SDS011;4352;49.404;11.092;2022-12-17T09:25:51;33.20;;;21.03;;
8628;SDS011;4352;49.404;11.092;2022-12-17T09:28:36;42.83;;;22.20;;
8628;SDS011;4352;49.404;11.092;2022-12-17T09:31:20;31.50;;;20.70;;
8628;SDS011;4352;49.404;11.092;2022-12-17T09:34:04;26.33;;;17.90;;
8628;SDS011;4352;49.404;11.092;2022-12-17T09:37:01;29.17;;;20.40;;
8628;SDS011;4352;49.404;11.092;2022-12-17T09:39:46;27.00;;;19.33;;
8628;SDS011;4352;49.404;11.092;2022-12-17T09:42:32;28.77;;;19.80;;
8628;SDS011;4352;49.404;11.092;2022-12-17T09:45:22;28.10;;;19.93;;
8628;SDS011;4352;49.404;11.092;2022-12-17T09:48:14;29.23;;;20.57;;
8628;SDS011;4352;49.404;11.092;2022-12-17T09:51:03;26.57;;;19.97;;
8628;SDS011;4352;49.404;11.092;2022-12-17T09:53:49;26.93;;;20.07;;
8628;SDS011;4352;49.404;11.092;2022-12-17T09:56:35;31.23;;;21.63;;
8628;SDS011;4352;49.404;11.092;2022-12-17T09:59:21;29.43;;;21.60;;
8628;SDS011;4352;49.404;11.092;2022-12-17T10:02:13;27.87;;;20.20;;
8628;SDS011;4352;49.404;11.092;2022-12-17T10:05:00;26.93;;;19.73;;
8628;SDS011;4352;49.404;11.092;2022-12-17T10:07:46;24.40;;;19.10;;
8628;SDS011;4352;49.404;11.092;2022-12-17T10:10:34;26.13;;;19.77;;
8628;SDS011;4352;49.404;11.092;2022-12-17T10:13:22;24.57;;;19.13;;
8628;SDS011;4352;49.404;11.092;2022-12-17T10:16:21;22.57;;;17.80;;
8628;SDS011;4352;49.404;11.092;2022-12-17T10:19:09;25.37;;;19.07;;
8628;SDS011;4352;49.404;11.092;2022-12-17T10:22:04;25.90;;;19.63;;
8628;SDS011;4352;49.404;11.092;2022-12-17T10:24:49;24.73;;;18.33;;
8628;SDS011;4352;49.404;11.092;2022-12-17T10:27:35;26.83;;;19.07;;
8628;SDS011;4352;49.404;11.092;2022-12-17T10:30:19;32.60;;;22.47;;
8628;SDS011;4352;49.404;11.092;2022-12-17T10:33:04;32.77;;;23.40;;
8628;SDS011;4352;49.404;11.092;2022-12-17T10:35:49;27.17;;;20.40;;
8628;SDS011;4352;49.404;11.092;2022-12-17T10:38:34;26.73;;;20.43;;
8628;SDS011;4352;49.404;11.092;2022-12-17T10:41:21;27.17;;;19.17;;
8628;SDS011;4352;49.404;11.092;2022-12-17T10:44:20;31.53;;;21.47;;
8628;SDS011;4352;49.404;11.092;2022-12-17T10:47:08;26.73;;;21.37;;
8628;SDS011;4352;49.404;11.092;2022-12-17T10:49:57;25.77;;;20.83;;
8628;SDS011;4352;49.404;11.092;2022-12-17T10:52:42;27.70;;;21.40;;
8628;SDS011;4352;49.404;11.092;2022-12-17T10:55:28;28.23;;;21.50;;
8628;SDS011;4352;49.404;11.092;2022-12-17T10:58:14;26.87;;;21.30;;
8628;SDS011;4352;49.404;11.092;2022-12-17T11:01:01;26.10;;;19.67;;
8628;SDS011;4352;49.404;11.092;2022-12-17T11:03:48;25.97;;;21.33;;
8628;SDS011;4352;49.404;11.092;2022-12-17T11:06:34;26.97;;;20.73;;
8628;SDS011;4352;49.404;11.092;2022-12-17T11:09:26;26.17;;;19.53;;
8628;SDS011;4352;49.404;11.092;2022-12-17T11:12:15;25.73;;;20.67;;
8628;SDS011;4352;49.404;11.092;2022-12-17T11:15:02;29.03;;;21.37;;
8628;SDS011;4352;49.404;11.092;2022-12-17T11:17:51;26.10;;;21.17;;
8628;SDS011;4352;49.404;11.092;2022-12-17T11:20:40;28.53;;;22.37;;
8628;SDS011;4352;49.404;11.092;2022-12-17T11:23:27;28.87;;;22.13;;
8628;SDS011;4352;49.404;11.092;2022-12-17T11:26:13;29.93;;;22.63;;
8628;SDS011;4352;49.404;11.092;2022-12-17T11:28:58;30.70;;;21.67;;
8628;SDS011;4352;49.404;11.092;2022-12-17T11:31:51;33.77;;;22.57;;
8628;SDS011;4352;49.404;11.092;2022-12-17T11:37:44;32.50;;;21.17;;
8628;SDS011;4352;49.404;11.092;2022-12-17T11:40:34;39.43;;;22.23;;
8628;SDS011;4352;49.404;11.092;2022-12-17T11:43:21;31.80;;;20.17;;
8628;SDS011;4352;49.404;11.092;2022-12-17T11:46:12;39.00;;;22.30;;
8628;SDS011;4352;49.404;11.092;2022-12-17T11:49:03;33.87;;;22.63;;
8628;SDS011;4352;49.404;11.092;2022-12-17T11:51:50;35.80;;;21.90;;
8628;SDS011;4352;49.404;11.092;2022-12-17T11:54:40;38.77;;;21.20;;
8628;SDS011;4352;49.404;11.092;2022-12-17T11:57:28;37.83;;;22.40;;
8628;SDS011;4352;49.404;11.092;2022-12-17T12:00:17;38.33;;;22.20;;
8628;SDS011;4352;49.404;11.092;2022-12-17T12:03:05;37.87;;;21.93;;
8628;SDS011;4352;49.404;11.092;2022-12-17T12:05:52;36.70;;;21.83;;
8628;SDS011;4352;49.404;11.092;2022-12-17T12:08:40;35.13;;;21.57;;
8628;SDS011;4352;49.404;11.092;2022-12-17T12:11:30;35.00;;;21.67;;
8628;SDS011;4352;49.404;11.092;2022-12-17T12:14:26;37.13;;;21.93;;
8628;SDS011;4352;49.404;11.092;2022-12-17T12:17:25;40.57;;;21.23;;
8628;SDS011;4352;49.404;11.092;2022-12-17T12:20:25;34.83;;;21.60;;
8628;SDS011;4352;49.404;11.092;2022-12-17T12:23:15;35.07;;;21.13;;
8628;SDS011;4352;49.404;11.092;2022-12-17T12:26:04;36.23;;;22.53;;
8628;SDS011;4352;49.404;11.092;2022-12-17T12:28:54;44.97;;;22.57;;
8628;SDS011;4352;49.404;11.092;2022-12-17T12:31:42;35.23;;;22.90;;
8628;SDS011;4352;49.404;11.092;2022-12-17T12:34:29;38.33;;;23.53;;
8628;SDS011;4352;49.404;11.092;2022-12-17T12:37:15;34.00;;;21.30;;
8628;SDS011;4352;49.404;11.092;2022-12-17T12:40:03;33.70;;;23.03;;
8628;SDS011;4352;49.404;11.092;2022-12-17T12:42:49;33.87;;;22.73;;
8628;SDS011;4352;49.404;11.092;2022-12-17T12:45:42;32.27;;;22.27;;
8628;SDS011;4352;49.404;11.092;2022-12-17T12:48:32;32.47;;;22.60;;
8628;SDS011;4352;49.404;11.092;2022-12-17T12:51:21;34.03;;;23.43;;
8628;SDS011;4352;49.404;11.092;2022-12-17T12:54:21;31.67;;;22.53;;
8628;SDS011;4352;49.404;11.092;2022-12-17T13:00:18;31.97;;;22.63;;
8628;SDS011;4352;49.404;11.092;2022-12-17T13:03:07;39.80;;;24.53;;
8628;SDS011;4352;49.404;11.092;2022-12-17T13:05:52;38.17;;;22.23;;
8628;SDS011;4352;49.404;11.092;2022-12-17T13:08:21;41.87;;;23.47;;
8628;SDS011;4352;49.404;11.092;2022-12-17T13:10:48;38.30;;;23.63;;
8628;SDS011;4352;49.404;11.092;2022-12-17T13:13:21;45.23;;;24.60;;
8628;SDS011;4352;49.404;11.092;2022-12-17T13:15:52;48.70;;;27.60;;
8628;SDS011;4352;49.404;11.092;2022-12-17T13:18:22;55.53;;;27.37;;
8628;SDS011;4352;49.404;11.092;2022-12-17T13:20:57;58.50;;;26.43;;
8628;SDS011;4352;49.404;11.092;2022-12-17T13:23:26;44.90;;;24.57;;
8628;SDS011;4352;49.404;11.092;2022-12-17T13:28:47;41.87;;;24.00;;
8628;SDS011;4352;49.404;11.092;2022-12-17T13:31:15;51.17;;;25.17;;
8628;SDS011;4352;49.404;11.092;2022-12-17T13:33:46;47.70;;;24.37;;
8628;SDS011;4352;49.404;11.092;2022-12-17T13:36:15;46.47;;;24.53;;
8628;SDS011;4352;49.404;11.092;2022-12-17T13:38:44;58.40;;;25.50;;
8628;SDS011;4352;49.404;11.092;2022-12-17T13:41:15;46.47;;;23.63;;
8628;SDS011;4352;49.404;11.092;2022-12-17T13:43:44;39.90;;;23.00;;
8628;SDS011;4352;49.404;11.092;2022-12-17T13:46:19;40.93;;;23.07;;
8628;SDS011;4352;49.404;11.092;2022-12-17T13:48:55;42.43;;;22.07;;
8628;SDS011;4352;49.404;11.092;2022-12-17T13:51:23;37.00;;;23.63;;
8628;SDS011;4352;49.404;11.092;2022-12-17T13:53:51;41.73;;;22.20;;
8628;SDS011;4352;49.404;11.092;2022-12-17T13:56:22;36.33;;;21.87;;
8628;SDS011;4352;49.404;11.092;2022-12-17T13:58:50;41.40;;;22.43;;
8628;SDS011;4352;49.404;11.092;2022-12-17T14:01:18;42.87;;;24.63;;
8628;SDS011;4352;49.404;11.092;2022-12-17T14:03:48;38.57;;;22.87;;
8628;SDS011;4352;49.404;11.092;2022-12-17T14:06:17;40.37;;;23.17;;
8628;SDS011;4352;49.404;11.092;2022-12-17T14:08:44;40.87;;;23.57;;
8628;SDS011;4352;49.404;11.092;2022-12-17T14:11:12;45.20;;;24.07;;
8628;SDS011;4352;49.404;11.092;2022-12-17T14:13:56;53.43;;;28.90;;
8628;SDS011;4352;49.404;11.092;2022-12-17T14:16:23;67.73;;;31.97;;
8628;SDS011;4352;49.404;11.092;2022-12-17T14:18:51;51.73;;;27.53;;
8628;SDS011;4352;49.404;11.092;2022-12-17T14:21:21;58.90;;;27.53;;
8628;SDS011;4352;49.404;11.092;2022-12-17T14:23:48;58.20;;;29.43;;
8628;SDS011;4352;49.404;11.092;2022-12-17T14:26:17;43.87;;;23.63;;
8628;SDS011;4352;49.404;11.092;2022-12-17T14:28:46;43.97;;;23.43;;
8628;SDS011;4352;49.404;11.092;2022-12-17T14:31:17;49.87;;;24.10;;
8628;SDS011;4352;49.404;11.092;2022-12-17T14:33:45;45.63;;;22.20;;
8628;SDS011;4352;49.404;11.092;2022-12-17T14:38:56;45.63;;;23.97;;
8628;SDS011;4352;49.404;11.092;2022-12-17T14:41:24;51.57;;;24.67;;
8628;SDS011;4352;49.404;11.092;2022-12-17T14:44:12;42.70;;;23.37;;
8628;SDS011;4352;49.404;11.092;2022-12-17T14:46:43;46.67;;;25.33;;
8628;SDS011;4352;49.404;11.092;2022-12-17T14:49:11;48.67;;;24.90;;
8628;SDS011;4352;49.404;11.092;2022-12-17T14:51:41;43.10;;;22.77;;
8628;SDS011;4352;49.404;11.092;2022-12-17T14:54:18;45.03;;;23.73;;
8628;SDS011;4352;49.404;11.092;2022-12-17T14:56:46;47.63;;;24.13;;
8628;SDS011;4352;49.404;11.092;2022-12-17T14:59:24;49.63;;;24.83;;
8628;SDS011;4352;49.404;11.092;2022-12-17T15:01:52;44.83;;;25.43;;
8628;SDS011;4352;49.404;11.092;2022-12-17T15:04:19;47.97;;;25.30;;
8628;SDS011;4352;49.404;11.092;2022-12-17T15:06:47;46.47;;;24.27;;
8628;SDS011;4352;49.404;11.092;2022-12-17T15:09:14;50.40;;;25.60;;
8628;SDS011;4352;49.404;11.092;2022-12-17T15:11:43;50.33;;;26.00;;
8628;SDS011;4352;49.404;11.092;2022-12-17T15:14:10;51.73;;;26.63;;
8628;SDS011;4352;49.404;11.092;2022-12-17T15:16:37;47.50;;;25.40;;
8628;SDS011;4352;49.404;11.092;2022-12-17T15:19:04;48.57;;;26.03;;
8628;SDS011;4352;49.404;11.092;2022-12-17T15:21:31;48.13;;;24.60;;
8628;SDS011;4352;49.404;11.092;2022-12-17T15:23:58;53.10;;;25.90;;
8628;SDS011;4352;49.404;11.092;2022-12-17T15:26:25;50.10;;;25.67;;
8628;SDS011;4352;49.404;11.092;2022-12-17T15:28:54;47.57;;;24.77;;
8628;SDS011;4352;49.404;11.092;2022-12-17T15:31:21;52.93;;;25.60;;
8628;SDS011;4352;49.404;11.092;2022-12-17T15:33:48;48.60;;;25.03;;
8628;SDS011;4352;49.404;11.092;2022-12-17T15:36:15;48.93;;;24.87;;
8628;SDS011;4352;49.404;11.092;2022-12-17T15:38:42;51.87;;;26.23;;
8628;SDS011;4352;49.404;11.092;2022-12-17T15:41:10;59.17;;;30.10;;
8628;SDS011;4352;49.404;11.092;2022-12-17T15:43:56;56.33;;;27.30;;
8628;SDS011;4352;49.404;11.092;2022-12-17T15:46:23;60.00;;;28.40;;
8628;SDS011;4352;49.404;11.092;2022-12-17T15:48:51;61.20;;;28.23;;
8628;SDS011;4352;49.404;11.092;2022-12-17T15:51:18;73.27;;;32.30;;
8628;SDS011;4352;49.404;11.092;2022-12-17T15:53:46;63.80;;;30.77;;
8628;SDS011;4352;49.404;11.092;2022-12-17T15:56:15;58.70;;;28.90;;
8628;SDS011;4352;49.404;11.092;2022-12-17T15:58:44;72.93;;;32.70;;
8628;SDS011;4352;49.404;11.092;2022-12-17T16:01:13;62.90;;;29.80;;
8628;SDS011;4352;49.404;11.092;2022-12-17T16:03:40;61.83;;;30.90;;
8628;SDS011;4352;49.404;11.092;2022-12-17T16:06:07;61.70;;;31.23;;
8628;SDS011;4352;49.404;11.092;2022-12-17T16:08:35;68.17;;;32.33;;
8628;SDS011;4352;49.404;11.092;2022-12-17T16:11:04;70.97;;;31.23;;
8628;SDS011;4352;49.404;11.092;2022-12-17T16:13:31;69.47;;;31.50;;
8628;SDS011;4352;49.404;11.092;2022-12-17T16:15:58;72.03;;;33.30;;
8628;SDS011;4352;49.404;11.092;2022-12-17T16:18:27;68.67;;;31.43;;
8628;SDS011;4352;49.404;11.092;2022-12-17T16:20:54;67.03;;;32.43;;